Duluth, MN

11:12 AM CDT on July 27, 2016 (GMT -0500)
Central Park | | Change Station

Elev 623 ft 46.72 °N, 92.07 °W | Updated 2 seconds ago

Overcast
Overcast
66.9 °F
Feels Like 66.9 °F
N
6.0
Wind Variable Wind from NE
Gusts 14.5 mph

Today
High -- | Low -- °F
--% Chance of Precip.
Yesterday
High -- | Low -- °F
Precip. -- in
Pressure 30.01 in
Visibility 10.0 miles
Clouds Scattered Clouds 2500 ft
Mostly Cloudy 3100 ft
Overcast 11000 ft
Dew Point 67 °F
Humidity 99%
Rainfall 0.09 in
Snow Depth Not available.
5:43 AM 8:45 PM
Last Quarter, 42% visible
METAR KSUW 271555Z AUTO 07011G17KT 10SM SCT025 BKN031 OVC110 18/16 A3001 RMK AO2 P0001 T01790157
Pressure 30.01 in
Visibility 10.0 miles
Clouds Scattered Clouds 2500 ft
Mostly Cloudy 3100 ft
Overcast 11000 ft
Dew Point 67 °F
Humidity 99%
Rainfall 0.09 in
Snow Depth Not available.
5:43 AM 8:45 PM
Last Quarter, 42% visible
METAR KSUW 271555Z AUTO 07011G17KT 10SM SCT025 BKN031 OVC110 18/16 A3001 RMK AO2 P0001 T01790157

10-Day Weather Forecast

Almanac

Astronomy

Jul. 27, 2016 Rise Set
Actual Time
Civil Twilight
Nautical Twilight
Astronomical Twilight
Moon
Length of Visible Light
Length of Day
Tomorrow will be .
, % of the Moon is Illuminated

Today's Extremes

State Highs State Lows

Community

WunderPhotos

Upload Photos

1,927,877 photos uploaded!

WunderBlog® & News

Nearby

Air Quality

  Air Quality AQ Index Pollutant
Not available.

Snow Depth

Station Depth Elevation

Earthquake Activity

City Distance Mag. Time & Date
Minimum magnitude displayed is 2.5.

Coastal Water Temperatures

Place Temperature

Stations

Nearby Weather Stations

Station Location Temp. Windchill Dew Point Humidity Wind Precip. Elev Updated Type
                   

Watches & Warnings

There are currently no watches in effect.